Twentynine Palms (Self) Airport
KNXP : now visible

Airfield :











YOU CAN JOIN US ON...

 
LOGIN :

Register | Disclaimer

   EN    FR    IT 

 









Legend :    VFR   Marginal VFR   IFR   Intensive IFR   Very Intensive IFR
Visi :
Ceiling :
>= 8 km
>= 3000ft
5 to 8 km
1000 to 3000 ft
1500m to 5 km
500 to 1000 ft
800 to 1500m
200 to 500 ft
< 800m
< 200 ft
Symbols :   Thunderstorms  Fog  Heavy snow  Heavy precipitations  Wind > 20 kt






- Airport Elevation : 2051 ft


KNXP - Twentynine Palms (Self)

CURRENT METAR :
  • 150656Z AUTO 30019G23KT 10SM CLR 11/01 A2989 RMK AO2 PK WND 31026/0641 SLP097 T01060011

EXPIRED METARs :
  • 150556Z AUTO 03009KT 10SM CLR 11/02 A2992 RMK AO2 PK WND 29037/0503 SLP108 T01110022 10167 20111 53016
  • 150456Z AUTO 29026G34KT 10SM CLR 12/03 A2987 RMK AO2 PK WND 28034/0455 SLP093 T01220028

TAF TAF KNXP
Valid from the 15 at 03:00 until the 16 at 03:00 UTC


1503/1603 31013G23KT 9999 FEW050 SCT250 QNH2980INS
TEMPO 1503/1509 33023G33KT
TEMPO 1509/1515 33023G33KT AUTOMATED SENSOR METWATCH 1503 TIL 1603 T07/1513Z T15/1521Z



MET'MAP, your aeronautical weather chart ! - Copyright ORBIFLY December 2007 - Disclaimer

ORBIFLY MET'MAP TEAM :

Programming & Development : Alexandra Zaïnal
Concept & original design : Baudouin d'Aumeries
Assistance for programming : Marc-Olivier Méhu
Technical & hardware support : Manuel Goepfert

Contact : metmap@orbifly.com




SOURCES & CREDITS :

   NOAA       Earth
Advisory